Ana Sayfa
METAR-TAF:

METAR-TAF

Havaalanları :

Fairford, İngiltere

Enlem: 51-41N, Boylam: 001-47W, yükseklik: 87 m

Güncel hava durumu gözlemi

Rapor saat 16:36 UTC de 32 dakika önce yapıldı.
Rüzgar batı/kuzeybatıdan 12 kt ve 18 kt'a kadar ani rüzgarlar
Sıcaklık 12°C
Nem 62%
Basınç 1014 hPa
Görüş mesafesi 10 km veya daha fazla
3700 ft yükseklikte parçalı bulutlu

METAR: EGVA 021636Z AUTO 30012G18KT 9999 SCT037 12/05 A2995 RMK AO2 SLP147 $

Saat: 18:08 (17:08 UTC)


TAF: eksik

4.000'den fazla havaalanı için hava durumu gözlemleri ve tahminleri (METAR ve TAF raporları).

Kullanılabilir istasyonlar harita üzerinde sarı ve kırmızı noktalarla gösterilir.

İstasyonun adını görmek için fareyi noktanın üzerinde gezdirin.

Sonrasında hava gözlem ve tahminlerini görmek için tıklayın.

Haritayı değiştirmek için: yaklaştırmak için siyah artı işaretli yeşil düğmeye ve uzaklaştırmak için de eksi işaretli düğmeye hızla tıklayın; bitişik haritalar için yeşil okları kullanın.


METAR-TAF: